sensor_id;sensor_type;location;lat;lon;timestamp;pressure;altitude;pressure_sealevel;temperature;humidity
27685;BME280;46113;50.130;8.526;2023-03-25T00:01:05;98171.88;;;5.91;74.98
27685;BME280;46113;50.130;8.526;2023-03-25T00:03:40;98169.25;;;6.07;74.27
27685;BME280;46113;50.130;8.526;2023-03-25T00:06:16;98154.28;;;5.77;72.41
27685;BME280;46113;50.130;8.526;2023-03-25T00:08:43;98166.72;;;5.73;71.89
27685;BME280;46113;50.130;8.526;2023-03-25T00:11:09;98164.19;;;5.72;73.35
27685;BME280;46113;50.130;8.526;2023-03-25T00:13:37;98169.50;;;6.03;72.24
27685;BME280;46113;50.130;8.526;2023-03-25T00:16:04;98168.63;;;5.38;74.51
27685;BME280;46113;50.130;8.526;2023-03-25T00:18:32;98177.75;;;5.64;74.79
27685;BME280;46113;50.130;8.526;2023-03-25T00:21:00;98180.25;;;5.66;74.37
27685;BME280;46113;50.130;8.526;2023-03-25T00:23:29;98178.31;;;5.53;74.21
27685;BME280;46113;50.130;8.526;2023-03-25T00:25:56;98186.69;;;5.76;75.78
27685;BME280;46113;50.130;8.526;2023-03-25T00:28:31;98184.31;;;5.55;76.54
27685;BME280;46113;50.130;8.526;2023-03-25T00:31:03;98172.88;;;4.89;76.60
27685;BME280;46113;50.130;8.526;2023-03-25T00:33:31;98169.81;;;4.80;76.81
27685;BME280;46113;50.130;8.526;2023-03-25T00:35:58;98168.66;;;5.20;76.03
27685;BME280;46113;50.130;8.526;2023-03-25T00:38:29;98163.66;;;5.15;76.06
27685;BME280;46113;50.130;8.526;2023-03-25T00:41:27;98155.81;;;5.65;74.70
27685;BME280;46113;50.130;8.526;2023-03-25T00:43:55;98165.38;;;5.66;74.08
27685;BME280;46113;50.130;8.526;2023-03-25T00:46:24;98168.78;;;5.01;75.70
27685;BME280;46113;50.130;8.526;2023-03-25T00:48:53;98173.56;;;4.92;74.70
27685;BME280;46113;50.130;8.526;2023-03-25T00:51:20;98175.38;;;5.08;74.96
27685;BME280;46113;50.130;8.526;2023-03-25T00:53:53;98172.50;;;4.97;75.17
27685;BME280;46113;50.130;8.526;2023-03-25T00:56:23;98186.78;;;4.73;76.42
27685;BME280;46113;50.130;8.526;2023-03-25T00:58:49;98177.94;;;4.58;76.36
27685;BME280;46113;50.130;8.526;2023-03-25T01:01:19;98181.63;;;4.54;75.96
27685;BME280;46113;50.130;8.526;2023-03-25T01:03:49;98184.56;;;4.48;75.90
27685;BME280;46113;50.130;8.526;2023-03-25T01:06:28;98183.16;;;4.40;76.07
27685;BME280;46113;50.130;8.526;2023-03-25T01:08:59;98171.22;;;4.52;75.59
27685;BME280;46113;50.130;8.526;2023-03-25T01:11:28;98168.91;;;4.46;75.29
27685;BME280;46113;50.130;8.526;2023-03-25T01:13:57;98167.28;;;4.26;76.69
27685;BME280;46113;50.130;8.526;2023-03-25T01:16:25;98167.56;;;4.02;77.88
27685;BME280;46113;50.130;8.526;2023-03-25T01:18:54;98164.75;;;3.87;78.15
27685;BME280;46113;50.130;8.526;2023-03-25T01:21:21;98181.19;;;4.09;77.27
27685;BME280;46113;50.130;8.526;2023-03-25T01:23:48;98191.63;;;4.28;75.85
27685;BME280;46113;50.130;8.526;2023-03-25T01:26:14;98192.28;;;4.14;75.87
27685;BME280;46113;50.130;8.526;2023-03-25T01:28:42;98194.00;;;4.33;75.04
27685;BME280;46113;50.130;8.526;2023-03-25T01:31:11;98192.94;;;4.37;74.74
27685;BME280;46113;50.130;8.526;2023-03-25T01:33:38;98189.94;;;4.45;73.75
27685;BME280;46113;50.130;8.526;2023-03-25T01:36:05;98168.69;;;4.33;75.01
27685;BME280;46113;50.130;8.526;2023-03-25T01:38:35;98191.47;;;4.31;74.61
27685;BME280;46113;50.130;8.526;2023-03-25T01:41:03;98181.78;;;4.51;73.64
27685;BME280;46113;50.130;8.526;2023-03-25T01:43:30;98189.53;;;4.35;74.26
27685;BME280;46113;50.130;8.526;2023-03-25T01:45:58;98181.81;;;4.14;74.63
27685;BME280;46113;50.130;8.526;2023-03-25T01:48:43;98182.84;;;4.29;74.22
27685;BME280;46113;50.130;8.526;2023-03-25T01:51:20;98170.34;;;4.17;74.08
27685;BME280;46113;50.130;8.526;2023-03-25T01:53:49;98162.59;;;3.96;74.01
27685;BME280;46113;50.130;8.526;2023-03-25T01:56:34;98159.09;;;4.32;73.96
27685;BME280;46113;50.130;8.526;2023-03-25T01:59:04;98148.00;;;4.27;74.18
27685;BME280;46113;50.130;8.526;2023-03-25T02:01:32;98148.34;;;3.84;75.67
27685;BME280;46113;50.130;8.526;2023-03-25T02:04:00;98147.53;;;4.01;74.99
27685;BME280;46113;50.130;8.526;2023-03-25T02:06:44;98141.25;;;4.23;74.35
27685;BME280;46113;50.130;8.526;2023-03-25T02:09:14;98134.41;;;4.38;73.02
27685;BME280;46113;50.130;8.526;2023-03-25T02:11:41;98141.56;;;4.34;73.20
27685;BME280;46113;50.130;8.526;2023-03-25T02:14:12;98143.94;;;4.39;75.02
27685;BME280;46113;50.130;8.526;2023-03-25T02:17:16;98139.50;;;4.41;73.08
27685;BME280;46113;50.130;8.526;2023-03-25T02:39:49;98121.69;;;4.99;71.98
27685;BME280;46113;50.130;8.526;2023-03-25T02:42:40;98106.88;;;4.64;71.74
27685;BME280;46113;50.130;8.526;2023-03-25T02:47:47;98108.03;;;4.92;71.99
27685;BME280;46113;50.130;8.526;2023-03-25T02:50:35;98103.69;;;4.75;73.48
27685;BME280;46113;50.130;8.526;2023-03-25T02:53:06;98109.84;;;4.92;72.98
27685;BME280;46113;50.130;8.526;2023-03-25T02:55:38;98104.09;;;5.01;73.12
27685;BME280;46113;50.130;8.526;2023-03-25T02:58:10;98108.91;;;4.59;75.02
27685;BME280;46113;50.130;8.526;2023-03-25T03:00:37;98103.50;;;4.96;72.74
27685;BME280;46113;50.130;8.526;2023-03-25T03:03:06;98095.47;;;4.99;72.97
27685;BME280;46113;50.130;8.526;2023-03-25T03:05:39;98102.09;;;5.06;73.44
27685;BME280;46113;50.130;8.526;2023-03-25T03:14:36;98101.16;;;4.74;73.15
27685;BME280;46113;50.130;8.526;2023-03-25T03:17:04;98106.53;;;4.88;73.30
27685;BME280;46113;50.130;8.526;2023-03-25T03:20:36;98098.06;;;4.83;73.27
27685;BME280;46113;50.130;8.526;2023-03-25T03:22:48;98098.75;;;4.87;73.11
27685;BME280;46113;50.130;8.526;2023-03-25T03:28:23;98088.88;;;5.08;72.38
27685;BME280;46113;50.130;8.526;2023-03-25T03:34:37;98106.81;;;4.66;74.18
27685;BME280;46113;50.130;8.526;2023-03-25T03:37:16;98108.03;;;4.76;73.69
27685;BME280;46113;50.130;8.526;2023-03-25T03:39:46;98109.78;;;4.76;74.43
27685;BME280;46113;50.130;8.526;2023-03-25T03:44:51;98108.91;;;4.93;73.40
27685;BME280;46113;50.130;8.526;2023-03-25T03:47:23;98110.94;;;4.70;74.59
27685;BME280;46113;50.130;8.526;2023-03-25T03:49:59;98122.06;;;4.40;75.39
27685;BME280;46113;50.130;8.526;2023-03-25T03:52:36;98116.19;;;4.70;74.72
27685;BME280;46113;50.130;8.526;2023-03-25T03:55:10;98117.56;;;4.77;74.57
27685;BME280;46113;50.130;8.526;2023-03-25T03:57:48;98114.41;;;4.88;73.69
27685;BME280;46113;50.130;8.526;2023-03-25T04:00:21;98110.19;;;4.68;74.67
27685;BME280;46113;50.130;8.526;2023-03-25T04:05:44;98101.56;;;4.66;73.83
27685;BME280;46113;50.130;8.526;2023-03-25T04:08:30;98106.97;;;4.63;73.73
27685;BME280;46113;50.130;8.526;2023-03-25T04:11:01;98106.81;;;4.66;72.77
27685;BME280;46113;50.130;8.526;2023-03-25T04:13:34;98102.19;;;4.18;74.11
27685;BME280;46113;50.130;8.526;2023-03-25T04:16:02;98104.13;;;4.32;74.13
27685;BME280;46113;50.130;8.526;2023-03-25T04:18:29;98107.41;;;4.71;72.69
27685;BME280;46113;50.130;8.526;2023-03-25T04:21:00;98106.63;;;4.69;72.25
27685;BME280;46113;50.130;8.526;2023-03-25T04:23:27;98104.50;;;4.42;74.61
27685;BME280;46113;50.130;8.526;2023-03-25T04:25:57;98107.38;;;4.20;75.18
27685;BME280;46113;50.130;8.526;2023-03-25T04:28:28;98107.44;;;4.36;73.01
27685;BME280;46113;50.130;8.526;2023-03-25T04:30:54;98106.34;;;4.58;72.60
27685;BME280;46113;50.130;8.526;2023-03-25T04:33:23;98104.72;;;4.55;72.12
27685;BME280;46113;50.130;8.526;2023-03-25T04:35:51;98114.81;;;4.63;70.96
27685;BME280;46113;50.130;8.526;2023-03-25T04:38:19;98106.59;;;4.35;71.87
27685;BME280;46113;50.130;8.526;2023-03-25T04:40:46;98102.56;;;4.63;71.63
27685;BME280;46113;50.130;8.526;2023-03-25T04:43:14;98107.56;;;4.68;71.33
27685;BME280;46113;50.130;8.526;2023-03-25T04:45:42;98119.28;;;4.43;71.95
27685;BME280;46113;50.130;8.526;2023-03-25T04:48:22;98113.97;;;4.27;72.24
27685;BME280;46113;50.130;8.526;2023-03-25T04:50:49;98113.06;;;4.28;72.78
27685;BME280;46113;50.130;8.526;2023-03-25T04:53:21;98117.22;;;4.14;73.11
27685;BME280;46113;50.130;8.526;2023-03-25T04:55:48;98127.00;;;4.46;71.28
27685;BME280;46113;50.130;8.526;2023-03-25T04:58:16;98131.16;;;4.68;70.79
27685;BME280;46113;50.130;8.526;2023-03-25T05:00:44;98139.63;;;4.20;72.71
27685;BME280;46113;50.130;8.526;2023-03-25T05:03:11;98134.44;;;3.83;71.28
27685;BME280;46113;50.130;8.526;2023-03-25T05:05:38;98138.25;;;4.31;71.60
27685;BME280;46113;50.130;8.526;2023-03-25T05:08:04;98131.06;;;4.17;71.68
27685;BME280;46113;50.130;8.526;2023-03-25T05:10:31;98133.53;;;4.37;70.54
27685;BME280;46113;50.130;8.526;2023-03-25T05:13:00;98155.41;;;4.19;70.73
27685;BME280;46113;50.130;8.526;2023-03-25T05:15:27;98147.50;;;4.20;70.68
27685;BME280;46113;50.130;8.526;2023-03-25T05:17:55;98143.72;;;4.26;71.25
27685;BME280;46113;50.130;8.526;2023-03-25T05:20:22;98162.03;;;4.26;69.21
27685;BME280;46113;50.130;8.526;2023-03-25T05:22:49;98155.25;;;4.57;68.80
27685;BME280;46113;50.130;8.526;2023-03-25T05:25:18;98164.28;;;4.34;69.29
27685;BME280;46113;50.130;8.526;2023-03-25T05:27:48;98159.38;;;4.45;68.97
27685;BME280;46113;50.130;8.526;2023-03-25T05:30:14;98182.78;;;4.66;67.65
27685;BME280;46113;50.130;8.526;2023-03-25T05:32:41;98175.66;;;4.15;69.21
27685;BME280;46113;50.130;8.526;2023-03-25T05:35:11;98173.47;;;4.43;69.94
27685;BME280;46113;50.130;8.526;2023-03-25T05:37:38;98172.81;;;4.37;68.36
27685;BME280;46113;50.130;8.526;2023-03-25T05:40:05;98177.84;;;4.77;68.05
27685;BME280;46113;50.130;8.526;2023-03-25T05:42:44;98181.41;;;4.41;67.22
27685;BME280;46113;50.130;8.526;2023-03-25T05:45:15;98192.72;;;4.77;66.68
27685;BME280;46113;50.130;8.526;2023-03-25T05:47:42;98178.75;;;4.59;67.34
27685;BME280;46113;50.130;8.526;2023-03-25T05:50:09;98196.53;;;5.05;67.18
27685;BME280;46113;50.130;8.526;2023-03-25T05:52:36;98194.28;;;4.63;67.41
27685;BME280;46113;50.130;8.526;2023-03-25T05:55:10;98203.94;;;5.14;65.83
27685;BME280;46113;50.130;8.526;2023-03-25T05:57:40;98214.97;;;4.33;68.34
27685;BME280;46113;50.130;8.526;2023-03-25T06:00:08;98201.25;;;4.98;66.04
27685;BME280;46113;50.130;8.526;2023-03-25T06:02:41;98199.34;;;4.84;66.52
27685;BME280;46113;50.130;8.526;2023-03-25T06:05:10;98212.28;;;5.05;66.32
27685;BME280;46113;50.130;8.526;2023-03-25T06:07:40;98208.81;;;4.87;67.38
27685;BME280;46113;50.130;8.526;2023-03-25T06:10:15;98221.44;;;5.14;67.11
27685;BME280;46113;50.130;8.526;2023-03-25T06:12:46;98230.00;;;5.00;66.30
27685;BME280;46113;50.130;8.526;2023-03-25T06:15:19;98214.91;;;4.87;66.53
27685;BME280;46113;50.130;8.526;2023-03-25T06:18:03;98217.75;;;4.47;68.96
27685;BME280;46113;50.130;8.526;2023-03-25T06:20:31;98210.28;;;4.57;71.39
27685;BME280;46113;50.130;8.526;2023-03-25T06:22:59;98218.69;;;4.64;71.26
27685;BME280;46113;50.130;8.526;2023-03-25T06:25:27;98214.13;;;4.67;69.58
27685;BME280;46113;50.130;8.526;2023-03-25T06:27:57;98220.00;;;4.90;69.72
27685;BME280;46113;50.130;8.526;2023-03-25T06:30:31;98202.75;;;5.20;69.49
27685;BME280;46113;50.130;8.526;2023-03-25T06:32:58;98220.75;;;5.10;68.90
27685;BME280;46113;50.130;8.526;2023-03-25T06:35:29;98225.13;;;5.27;67.64
27685;BME280;46113;50.130;8.526;2023-03-25T06:37:56;98226.59;;;5.67;65.89
27685;BME280;46113;50.130;8.526;2023-03-25T06:40:29;98241.63;;;5.63;64.80
27685;BME280;46113;50.130;8.526;2023-03-25T06:42:58;98225.06;;;4.76;67.79
27685;BME280;46113;50.130;8.526;2023-03-25T06:46:04;98237.19;;;4.96;65.37
27685;BME280;46113;50.130;8.526;2023-03-25T06:48:57;98241.41;;;6.00;64.79
27685;BME280;46113;50.130;8.526;2023-03-25T06:51:23;98241.66;;;6.11;63.11
27685;BME280;46113;50.130;8.526;2023-03-25T06:53:53;98237.00;;;6.01;64.19
27685;BME280;46113;50.130;8.526;2023-03-25T06:56:22;98242.34;;;6.15;63.34
27685;BME280;46113;50.130;8.526;2023-03-25T06:58:49;98250.53;;;6.25;63.51
27685;BME280;46113;50.130;8.526;2023-03-25T07:01:19;98240.31;;;6.04;63.51
27685;BME280;46113;50.130;8.526;2023-03-25T07:03:49;98250.38;;;6.12;63.34
27685;BME280;46113;50.130;8.526;2023-03-25T07:06:20;98230.81;;;6.64;61.89
27685;BME280;46113;50.130;8.526;2023-03-25T07:08:47;98240.47;;;5.85;64.10
27685;BME280;46113;50.130;8.526;2023-03-25T07:11:24;98243.69;;;6.22;64.44
27685;BME280;46113;50.130;8.526;2023-03-25T07:13:51;98249.69;;;5.92;64.13
27685;BME280;46113;50.130;8.526;2023-03-25T07:16:20;98245.47;;;5.90;64.60
27685;BME280;46113;50.130;8.526;2023-03-25T07:18:47;98256.19;;;5.69;64.88
27685;BME280;46113;50.130;8.526;2023-03-25T07:21:19;98246.56;;;6.02;63.08
27685;BME280;46113;50.130;8.526;2023-03-25T07:23:46;98250.94;;;5.69;64.82
27685;BME280;46113;50.130;8.526;2023-03-25T07:30:11;98246.28;;;5.40;66.16
27685;BME280;46113;50.130;8.526;2023-03-25T07:32:38;98249.19;;;6.02;64.03
27685;BME280;46113;50.130;8.526;2023-03-25T07:35:10;98255.28;;;6.34;63.12
27685;BME280;46113;50.130;8.526;2023-03-25T07:37:42;98253.28;;;5.24;63.36
27685;BME280;46113;50.130;8.526;2023-03-25T07:40:11;98248.16;;;5.72;64.09
27685;BME280;46113;50.130;8.526;2023-03-25T07:42:38;98245.63;;;5.86;62.54
27685;BME280;46113;50.130;8.526;2023-03-25T07:45:22;98245.88;;;6.30;62.47
27685;BME280;46113;50.130;8.526;2023-03-25T07:47:51;98253.97;;;6.58;60.51
27685;BME280;46113;50.130;8.526;2023-03-25T07:50:30;98242.72;;;5.59;63.69
27685;BME280;46113;50.130;8.526;2023-03-25T07:53:00;98248.16;;;5.72;62.91
27685;BME280;46113;50.130;8.526;2023-03-25T07:55:32;98241.47;;;5.98;62.68
27685;BME280;46113;50.130;8.526;2023-03-25T07:57:59;98237.84;;;6.33;61.30
27685;BME280;46113;50.130;8.526;2023-03-25T08:00:32;98243.91;;;6.34;63.01
27685;BME280;46113;50.130;8.526;2023-03-25T08:03:06;98242.66;;;6.41;62.02
27685;BME280;46113;50.130;8.526;2023-03-25T08:08:44;98240.69;;;6.45;62.62
27685;BME280;46113;50.130;8.526;2023-03-25T08:11:11;98230.28;;;7.04;59.63
27685;BME280;46113;50.130;8.526;2023-03-25T08:13:37;98231.56;;;6.67;60.33
27685;BME280;46113;50.130;8.526;2023-03-25T08:16:10;98235.00;;;6.52;61.22
27685;BME280;46113;50.130;8.526;2023-03-25T08:18:37;98234.19;;;5.71;62.78
27685;BME280;46113;50.130;8.526;2023-03-25T08:21:04;98241.47;;;6.31;63.47
27685;BME280;46113;50.130;8.526;2023-03-25T08:23:31;98230.78;;;6.34;63.58
27685;BME280;46113;50.130;8.526;2023-03-25T08:26:02;98234.88;;;6.23;60.85
27685;BME280;46113;50.130;8.526;2023-03-25T08:28:30;98225.97;;;6.87;59.84
27685;BME280;46113;50.130;8.526;2023-03-25T08:30:57;98227.69;;;7.34;58.83
27685;BME280;46113;50.130;8.526;2023-03-25T08:33:27;98225.78;;;7.21;58.53
27685;BME280;46113;50.130;8.526;2023-03-25T08:36:06;98232.94;;;7.34;60.11
27685;BME280;46113;50.130;8.526;2023-03-25T08:38:33;98234.28;;;6.96;58.91
27685;BME280;46113;50.130;8.526;2023-03-25T08:41:01;98233.16;;;7.00;60.01
27685;BME280;46113;50.130;8.526;2023-03-25T08:43:28;98238.88;;;6.92;59.60
27685;BME280;46113;50.130;8.526;2023-03-25T08:45:55;98242.81;;;7.30;58.64
27685;BME280;46113;50.130;8.526;2023-03-25T08:48:21;98228.84;;;6.68;60.74
27685;BME280;46113;50.130;8.526;2023-03-25T08:50:49;98225.97;;;6.26;59.73
27685;BME280;46113;50.130;8.526;2023-03-25T08:53:16;98231.13;;;6.44;61.04
27685;BME280;46113;50.130;8.526;2023-03-25T08:55:42;98220.91;;;7.15;58.49
27685;BME280;46113;50.130;8.526;2023-03-25T08:58:09;98211.78;;;7.06;58.10
27685;BME280;46113;50.130;8.526;2023-03-25T09:00:35;98210.28;;;7.31;59.91
27685;BME280;46113;50.130;8.526;2023-03-25T09:03:04;98220.03;;;7.73;55.78
27685;BME280;46113;50.130;8.526;2023-03-25T09:05:31;98221.31;;;7.94;57.61
27685;BME280;46113;50.130;8.526;2023-03-25T09:07:58;98212.19;;;7.29;57.63
27685;BME280;46113;50.130;8.526;2023-03-25T09:10:26;98217.13;;;6.43;60.12
27685;BME280;46113;50.130;8.526;2023-03-25T09:12:53;98220.63;;;7.05;58.57
27685;BME280;46113;50.130;8.526;2023-03-25T09:15:19;98217.97;;;7.49;57.08
27685;BME280;46113;50.130;8.526;2023-03-25T09:17:46;98209.75;;;7.40;57.19
27685;BME280;46113;50.130;8.526;2023-03-25T09:20:13;98204.91;;;6.73;58.38
27685;BME280;46113;50.130;8.526;2023-03-25T09:22:40;98211.75;;;7.64;58.13
27685;BME280;46113;50.130;8.526;2023-03-25T09:25:07;98200.47;;;8.19;55.42
27685;BME280;46113;50.130;8.526;2023-03-25T09:27:34;98198.75;;;8.45;53.99
27685;BME280;46113;50.130;8.526;2023-03-25T09:30:01;98191.16;;;8.94;54.03
27685;BME280;46113;50.130;8.526;2023-03-25T09:32:28;98208.44;;;8.59;55.03
27685;BME280;46113;50.130;8.526;2023-03-25T09:34:55;98193.66;;;8.57;54.42
27685;BME280;46113;50.130;8.526;2023-03-25T09:37:22;98186.78;;;7.13;55.45
27685;BME280;46113;50.130;8.526;2023-03-25T09:40:23;98189.81;;;7.22;56.33
27685;BME280;46113;50.130;8.526;2023-03-25T09:46:38;98178.81;;;7.15;55.92
27685;BME280;46113;50.130;8.526;2023-03-25T09:49:50;98191.53;;;7.79;55.01
27685;BME280;46113;50.130;8.526;2023-03-25T10:24:49;98289.25;;;6.54;57.63
27685;BME280;46113;50.130;8.526;2023-03-25T10:27:33;98368.63;;;4.88;60.58
27685;BME280;46113;50.130;8.526;2023-03-25T10:30:12;98401.00;;;3.06;66.30
27685;BME280;46113;50.130;8.526;2023-03-25T10:32:46;98388.50;;;1.74;71.74
27685;BME280;46113;50.130;8.526;2023-03-25T10:35:19;98377.88;;;1.30;73.69
27685;BME280;46113;50.130;8.526;2023-03-25T10:37:51;98350.56;;;1.40;75.10
27685;BME280;46113;50.130;8.526;2023-03-25T10:40:26;98328.56;;;1.73;72.45
27685;BME280;46113;50.130;8.526;2023-03-25T10:43:13;98330.78;;;2.08;74.32
27685;BME280;46113;50.130;8.526;2023-03-25T10:45:47;98329.88;;;2.09;76.76
27685;BME280;46113;50.130;8.526;2023-03-25T10:50:44;98308.31;;;2.50;75.05
27685;BME280;46113;50.130;8.526;2023-03-25T10:53:19;98314.97;;;2.57;75.91
27685;BME280;46113;50.130;8.526;2023-03-25T10:56:11;98316.22;;;2.91;73.30
27685;BME280;46113;50.130;8.526;2023-03-25T10:58:55;98314.84;;;3.66;74.25
27685;BME280;46113;50.130;8.526;2023-03-25T11:01:55;98312.63;;;4.16;73.31
27685;BME280;46113;50.130;8.526;2023-03-25T11:04:35;98303.28;;;4.29;71.93
27685;BME280;46113;50.130;8.526;2023-03-25T11:12:53;98280.00;;;4.60;71.91
27685;BME280;46113;50.130;8.526;2023-03-25T11:16:10;98279.72;;;4.66;74.18
27685;BME280;46113;50.130;8.526;2023-03-25T11:22:53;98279.56;;;4.32;72.30
27685;BME280;46113;50.130;8.526;2023-03-25T11:26:56;98276.91;;;5.40;73.19
27685;BME280;46113;50.130;8.526;2023-03-25T11:29:52;98273.63;;;5.70;72.08
27685;BME280;46113;50.130;8.526;2023-03-25T11:32:38;98277.47;;;6.29;71.35
27685;BME280;46113;50.130;8.526;2023-03-25T11:35:15;98270.03;;;5.89;69.05
27685;BME280;46113;50.130;8.526;2023-03-25T11:37:47;98264.97;;;6.18;68.47
27685;BME280;46113;50.130;8.526;2023-03-25T11:40:19;98268.06;;;5.92;68.41
27685;BME280;46113;50.130;8.526;2023-03-25T11:42:52;98268.84;;;6.27;68.92
27685;BME280;46113;50.130;8.526;2023-03-25T11:45:30;98260.72;;;6.92;66.30
27685;BME280;46113;50.130;8.526;2023-03-25T11:48:09;98258.78;;;6.65;67.94
27685;BME280;46113;50.130;8.526;2023-03-25T11:51:06;98260.97;;;6.73;68.08
27685;BME280;46113;50.130;8.526;2023-03-25T11:53:35;98254.81;;;6.89;65.82
27685;BME280;46113;50.130;8.526;2023-03-25T11:56:05;98248.41;;;6.78;70.28
27685;BME280;46113;50.130;8.526;2023-03-25T11:58:37;98253.03;;;6.59;68.75
27685;BME280;46113;50.130;8.526;2023-03-25T12:01:10;98240.91;;;6.09;69.45
27685;BME280;46113;50.130;8.526;2023-03-25T12:03:43;98239.13;;;6.87;68.32
27685;BME280;46113;50.130;8.526;2023-03-25T12:08:56;98227.25;;;6.96;65.72
27685;BME280;46113;50.130;8.526;2023-03-25T12:12:37;98219.56;;;7.80;64.76
27685;BME280;46113;50.130;8.526;2023-03-25T12:15:09;98210.56;;;8.12;61.52
27685;BME280;46113;50.130;8.526;2023-03-25T12:20:24;98214.31;;;8.08;61.04
27685;BME280;46113;50.130;8.526;2023-03-25T12:23:00;98210.84;;;8.35;59.45
27685;BME280;46113;50.130;8.526;2023-03-25T12:25:39;98217.41;;;7.73;61.99
27685;BME280;46113;50.130;8.526;2023-03-25T12:28:17;98212.59;;;8.21;59.08
27685;BME280;46113;50.130;8.526;2023-03-25T12:31:03;98202.88;;;7.94;60.05
27685;BME280;46113;50.130;8.526;2023-03-25T12:36:23;98189.13;;;8.04;59.25
27685;BME280;46113;50.130;8.526;2023-03-25T12:47:12;98173.13;;;8.07;56.97
27685;BME280;46113;50.130;8.526;2023-03-25T12:50:16;98174.66;;;8.24;56.90
27685;BME280;46113;50.130;8.526;2023-03-25T13:01:28;98165.84;;;7.83;57.41
27685;BME280;46113;50.130;8.526;2023-03-25T13:09:26;98150.81;;;7.85;53.97
27685;BME280;46113;50.130;8.526;2023-03-25T13:18:08;98157.50;;;8.98;50.28
27685;BME280;46113;50.130;8.526;2023-03-25T13:20:48;98144.84;;;8.77;49.57
27685;BME280;46113;50.130;8.526;2023-03-25T13:23:56;98133.16;;;8.81;52.08
27685;BME280;46113;50.130;8.526;2023-03-25T13:26:43;98133.66;;;8.60;47.39
27685;BME280;46113;50.130;8.526;2023-03-25T13:29:33;98147.19;;;8.28;50.90
27685;BME280;46113;50.130;8.526;2023-03-25T13:32:11;98140.53;;;8.76;51.13
27685;BME280;46113;50.130;8.526;2023-03-25T13:34:51;98139.59;;;8.36;50.50
27685;BME280;46113;50.130;8.526;2023-03-25T13:37:25;98140.09;;;8.56;47.85
27685;BME280;46113;50.130;8.526;2023-03-25T13:42:47;98142.44;;;8.87;53.30
27685;BME280;46113;50.130;8.526;2023-03-25T13:45:19;98146.00;;;9.25;49.84
27685;BME280;46113;50.130;8.526;2023-03-25T13:50:41;98139.94;;;8.45;50.79
27685;BME280;46113;50.130;8.526;2023-03-25T13:53:26;98143.34;;;9.38;49.64
27685;BME280;46113;50.130;8.526;2023-03-25T14:12:43;98177.94;;;8.55;52.63
27685;BME280;46113;50.130;8.526;2023-03-25T14:15:14;98177.84;;;8.29;51.25
27685;BME280;46113;50.130;8.526;2023-03-25T14:17:42;98185.63;;;8.18;52.09
27685;BME280;46113;50.130;8.526;2023-03-25T14:20:21;98184.84;;;9.10;51.53
27685;BME280;46113;50.130;8.526;2023-03-25T14:22:56;98178.50;;;9.25;51.80
27685;BME280;46113;50.130;8.526;2023-03-25T14:25:38;98169.13;;;9.72;49.84
27685;BME280;46113;50.130;8.526;2023-03-25T14:28:07;98175.84;;;9.38;49.17
27685;BME280;46113;50.130;8.526;2023-03-25T14:30:37;98184.75;;;8.17;51.67
27685;BME280;46113;50.130;8.526;2023-03-25T14:33:08;98178.59;;;8.72;49.84
27685;BME280;46113;50.130;8.526;2023-03-25T14:43:43;98172.78;;;9.19;50.77
27685;BME280;46113;50.130;8.526;2023-03-25T14:46:15;98168.28;;;8.95;50.74
27685;BME280;46113;50.130;8.526;2023-03-25T14:49:09;98168.59;;;8.90;49.58
27685;BME280;46113;50.130;8.526;2023-03-25T14:51:45;98158.78;;;8.79;50.56
27685;BME280;46113;50.130;8.526;2023-03-25T14:56:54;98160.44;;;9.32;49.88
27685;BME280;46113;50.130;8.526;2023-03-25T14:59:28;98156.16;;;8.39;50.88
27685;BME280;46113;50.130;8.526;2023-03-25T15:02:02;98162.59;;;9.01;48.63
27685;BME280;46113;50.130;8.526;2023-03-25T15:04:33;98164.56;;;9.36;49.16
27685;BME280;46113;50.130;8.526;2023-03-25T15:07:01;98160.78;;;9.14;50.15
27685;BME280;46113;50.130;8.526;2023-03-25T15:09:29;98168.47;;;8.79;50.53
27685;BME280;46113;50.130;8.526;2023-03-25T15:11:59;98149.06;;;8.93;48.59
27685;BME280;46113;50.130;8.526;2023-03-25T15:14:35;98159.84;;;9.02;49.43
27685;BME280;46113;50.130;8.526;2023-03-25T15:17:05;98148.84;;;9.22;47.98
27685;BME280;46113;50.130;8.526;2023-03-25T15:22:34;98149.59;;;8.31;47.93
27685;BME280;46113;50.130;8.526;2023-03-25T15:25:09;98151.69;;;8.67;46.43
27685;BME280;46113;50.130;8.526;2023-03-25T15:28:01;98151.59;;;9.07;46.13
27685;BME280;46113;50.130;8.526;2023-03-25T15:30:56;98153.41;;;8.94;45.32
27685;BME280;46113;50.130;8.526;2023-03-25T15:34:08;98149.38;;;8.75;45.77
27685;BME280;46113;50.130;8.526;2023-03-25T15:56:12;98145.88;;;8.48;43.85
27685;BME280;46113;50.130;8.526;2023-03-25T15:58:51;98149.06;;;8.80;46.53
27685;BME280;46113;50.130;8.526;2023-03-25T16:01:26;98146.34;;;8.41;45.08
27685;BME280;46113;50.130;8.526;2023-03-25T16:07:02;98141.63;;;8.05;44.50
27685;BME280;46113;50.130;8.526;2023-03-25T16:09:30;98157.47;;;8.59;43.75
27685;BME280;46113;50.130;8.526;2023-03-25T16:12:00;98145.09;;;8.33;44.77
27685;BME280;46113;50.130;8.526;2023-03-25T16:14:30;98150.91;;;8.11;45.43
27685;BME280;46113;50.130;8.526;2023-03-25T16:16:59;98144.66;;;8.40;43.22
27685;BME280;46113;50.130;8.526;2023-03-25T16:19:38;98146.31;;;8.68;42.02
27685;BME280;46113;50.130;8.526;2023-03-25T16:22:26;98136.19;;;8.49;40.88
27685;BME280;46113;50.130;8.526;2023-03-25T16:24:55;98145.69;;;8.52;41.65
27685;BME280;46113;50.130;8.526;2023-03-25T16:27:28;98149.22;;;8.50;42.97
27685;BME280;46113;50.130;8.526;2023-03-25T16:29:56;98152.84;;;8.75;42.55
27685;BME280;46113;50.130;8.526;2023-03-25T16:32:25;98152.53;;;8.67;42.47
27685;BME280;46113;50.130;8.526;2023-03-25T16:35:02;98153.69;;;8.50;43.75
27685;BME280;46113;50.130;8.526;2023-03-25T16:37:39;98155.31;;;8.38;44.92
27685;BME280;46113;50.130;8.526;2023-03-25T16:40:07;98153.38;;;8.27;43.57
27685;BME280;46113;50.130;8.526;2023-03-25T16:42:38;98158.97;;;8.22;45.12
27685;BME280;46113;50.130;8.526;2023-03-25T16:45:20;98147.44;;;8.10;44.29
27685;BME280;46113;50.130;8.526;2023-03-25T16:47:48;98164.75;;;8.28;43.56
27685;BME280;46113;50.130;8.526;2023-03-25T16:50:16;98157.59;;;8.30;44.40
27685;BME280;46113;50.130;8.526;2023-03-25T16:52:45;98151.19;;;8.06;44.31
27685;BME280;46113;50.130;8.526;2023-03-25T16:55:26;98140.97;;;8.42;42.52